sensor_id;sensor_type;location;lat;lon;timestamp;P1;durP1;ratioP1;P2;durP2;ratioP2
59607;SDS011;45426;44.726;10.390;2023-02-01T00:01:43;15.30;;;5.43;;
59607;SDS011;45426;44.726;10.390;2023-02-01T00:04:08;18.63;;;5.85;;
59607;SDS011;45426;44.726;10.390;2023-02-01T00:06:34;16.35;;;5.78;;
59607;SDS011;45426;44.726;10.390;2023-02-01T00:08:59;14.93;;;6.10;;
59607;SDS011;45426;44.726;10.390;2023-02-01T00:11:25;19.15;;;6.72;;
59607;SDS011;45426;44.726;10.390;2023-02-01T00:13:50;17.02;;;5.97;;
59607;SDS011;45426;44.726;10.390;2023-02-01T00:16:18;16.63;;;5.80;;
59607;SDS011;45426;44.726;10.390;2023-02-01T00:18:48;17.17;;;6.70;;
59607;SDS011;45426;44.726;10.390;2023-02-01T00:21:16;18.70;;;6.63;;
59607;SDS011;45426;44.726;10.390;2023-02-01T00:23:43;19.60;;;6.63;;
59607;SDS011;45426;44.726;10.390;2023-02-01T00:26:30;17.15;;;6.07;;
59607;SDS011;45426;44.726;10.390;2023-02-01T00:28:57;21.23;;;7.88;;
59607;SDS011;45426;44.726;10.390;2023-02-01T00:31:22;18.67;;;7.32;;
59607;SDS011;45426;44.726;10.390;2023-02-01T00:33:48;19.10;;;7.75;;
59607;SDS011;45426;44.726;10.390;2023-02-01T00:36:13;19.10;;;6.55;;
59607;SDS011;45426;44.726;10.390;2023-02-01T00:38:40;19.52;;;6.60;;
59607;SDS011;45426;44.726;10.390;2023-02-01T00:41:16;17.20;;;6.32;;
59607;SDS011;45426;44.726;10.390;2023-02-01T00:43:43;17.58;;;7.00;;
59607;SDS011;45426;44.726;10.390;2023-02-01T00:46:10;17.27;;;5.63;;
59607;SDS011;45426;44.726;10.390;2023-02-01T00:48:36;16.58;;;5.68;;
59607;SDS011;45426;44.726;10.390;2023-02-01T00:51:04;14.85;;;5.63;;
59607;SDS011;45426;44.726;10.390;2023-02-01T00:53:31;15.85;;;6.47;;
59607;SDS011;45426;44.726;10.390;2023-02-01T00:55:57;16.20;;;5.63;;
59607;SDS011;45426;44.726;10.390;2023-02-01T00:58:23;15.77;;;5.43;;
59607;SDS011;45426;44.726;10.390;2023-02-01T01:03:50;15.35;;;5.95;;
59607;SDS011;45426;44.726;10.390;2023-02-01T01:06:18;14.18;;;5.28;;
59607;SDS011;45426;44.726;10.390;2023-02-01T01:08:45;14.40;;;5.82;;
59607;SDS011;45426;44.726;10.390;2023-02-01T01:11:12;14.68;;;5.03;;
59607;SDS011;45426;44.726;10.390;2023-02-01T01:13:42;14.02;;;4.60;;
59607;SDS011;45426;44.726;10.390;2023-02-01T01:16:11;13.25;;;4.85;;
59607;SDS011;45426;44.726;10.390;2023-02-01T01:18:36;12.77;;;4.68;;
59607;SDS011;45426;44.726;10.390;2023-02-01T01:21:04;11.88;;;4.72;;
59607;SDS011;45426;44.726;10.390;2023-02-01T01:23:30;14.77;;;5.47;;
59607;SDS011;45426;44.726;10.390;2023-02-01T01:25:56;14.05;;;5.53;;
59607;SDS011;45426;44.726;10.390;2023-02-01T01:28:22;16.67;;;6.10;;
59607;SDS011;45426;44.726;10.390;2023-02-01T01:30:47;15.48;;;6.60;;
59607;SDS011;45426;44.726;10.390;2023-02-01T01:33:13;15.15;;;5.90;;
59607;SDS011;45426;44.726;10.390;2023-02-01T01:35:38;13.90;;;4.68;;
59607;SDS011;45426;44.726;10.390;2023-02-01T01:38:04;13.05;;;5.15;;
59607;SDS011;45426;44.726;10.390;2023-02-01T01:40:30;13.00;;;4.43;;
59607;SDS011;45426;44.726;10.390;2023-02-01T01:42:56;10.30;;;3.90;;
59607;SDS011;45426;44.726;10.390;2023-02-01T01:48:03;9.00;;;3.70;;
59607;SDS011;45426;44.726;10.390;2023-02-01T01:53:19;10.85;;;4.00;;
59607;SDS011;45426;44.726;10.390;2023-02-01T01:55:48;9.73;;;3.63;;
59607;SDS011;45426;44.726;10.390;2023-02-01T01:58:17;8.35;;;3.80;;
59607;SDS011;45426;44.726;10.390;2023-02-01T02:00:45;9.48;;;3.80;;
59607;SDS011;45426;44.726;10.390;2023-02-01T02:03:13;10.80;;;4.07;;
59607;SDS011;45426;44.726;10.390;2023-02-01T02:05:44;10.80;;;3.80;;
59607;SDS011;45426;44.726;10.390;2023-02-01T02:08:11;10.85;;;3.72;;
59607;SDS011;45426;44.726;10.390;2023-02-01T02:10:37;7.95;;;3.35;;
59607;SDS011;45426;44.726;10.390;2023-02-01T02:13:21;6.65;;;3.20;;
59607;SDS011;45426;44.726;10.390;2023-02-01T02:15:52;6.60;;;3.15;;
59607;SDS011;45426;44.726;10.390;2023-02-01T02:37:48;9.10;;;3.60;;
59607;SDS011;45426;44.726;10.390;2023-02-01T02:40:32;8.95;;;3.33;;
59607;SDS011;45426;44.726;10.390;2023-02-01T02:46:16;10.35;;;3.80;;
59607;SDS011;45426;44.726;10.390;2023-02-01T02:51:42;10.23;;;3.70;;
59607;SDS011;45426;44.726;10.390;2023-02-01T02:54:32;11.13;;;3.63;;
59607;SDS011;45426;44.726;10.390;2023-02-01T02:57:13;10.32;;;3.78;;
59607;SDS011;45426;44.726;10.390;2023-02-01T03:00:02;14.20;;;4.35;;
59607;SDS011;45426;44.726;10.390;2023-02-01T03:02:50;11.13;;;4.03;;
59607;SDS011;45426;44.726;10.390;2023-02-01T03:05:35;12.05;;;4.20;;
59607;SDS011;45426;44.726;10.390;2023-02-01T03:08:08;12.00;;;3.90;;
59607;SDS011;45426;44.726;10.390;2023-02-01T03:10:42;11.27;;;4.28;;
59607;SDS011;45426;44.726;10.390;2023-02-01T03:15:50;10.90;;;3.95;;
59607;SDS011;45426;44.726;10.390;2023-02-01T03:18:32;9.93;;;4.00;;
59607;SDS011;45426;44.726;10.390;2023-02-01T03:21:06;11.82;;;4.15;;
59607;SDS011;45426;44.726;10.390;2023-02-01T03:23:35;11.70;;;4.20;;
59607;SDS011;45426;44.726;10.390;2023-02-01T03:26:04;11.95;;;4.10;;
59607;SDS011;45426;44.726;10.390;2023-02-01T03:28:34;8.93;;;4.07;;
59607;SDS011;45426;44.726;10.390;2023-02-01T03:31:03;13.27;;;4.07;;
59607;SDS011;45426;44.726;10.390;2023-02-01T03:33:28;10.80;;;4.38;;
59607;SDS011;45426;44.726;10.390;2023-02-01T03:41:17;10.30;;;4.18;;
59607;SDS011;45426;44.726;10.390;2023-02-01T03:44:08;10.98;;;4.15;;
59607;SDS011;45426;44.726;10.390;2023-02-01T03:46:38;13.27;;;4.10;;
59607;SDS011;45426;44.726;10.390;2023-02-01T03:49:18;11.52;;;4.32;;
59607;SDS011;45426;44.726;10.390;2023-02-01T03:51:49;9.48;;;3.80;;
59607;SDS011;45426;44.726;10.390;2023-02-01T03:54:16;11.98;;;4.40;;
59607;SDS011;45426;44.726;10.390;2023-02-01T03:56:43;9.55;;;3.65;;
59607;SDS011;45426;44.726;10.390;2023-02-01T03:59:12;10.68;;;3.75;;
59607;SDS011;45426;44.726;10.390;2023-02-01T04:01:38;12.38;;;4.10;;
59607;SDS011;45426;44.726;10.390;2023-02-01T04:04:04;11.40;;;3.90;;
59607;SDS011;45426;44.726;10.390;2023-02-01T04:06:30;10.63;;;3.95;;
59607;SDS011;45426;44.726;10.390;2023-02-01T04:08:55;9.68;;;3.78;;
59607;SDS011;45426;44.726;10.390;2023-02-01T04:11:21;10.80;;;4.15;;
59607;SDS011;45426;44.726;10.390;2023-02-01T04:13:46;11.23;;;3.80;;
59607;SDS011;45426;44.726;10.390;2023-02-01T04:16:12;9.40;;;3.90;;
59607;SDS011;45426;44.726;10.390;2023-02-01T04:18:37;9.20;;;3.95;;
59607;SDS011;45426;44.726;10.390;2023-02-01T04:21:03;8.95;;;3.50;;
59607;SDS011;45426;44.726;10.390;2023-02-01T04:23:29;10.85;;;4.18;;
59607;SDS011;45426;44.726;10.390;2023-02-01T04:26:03;14.27;;;4.25;;
59607;SDS011;45426;44.726;10.390;2023-02-01T04:28:29;11.82;;;4.68;;
59607;SDS011;45426;44.726;10.390;2023-02-01T04:30:56;13.75;;;5.15;;
59607;SDS011;45426;44.726;10.390;2023-02-01T04:33:21;13.43;;;4.65;;
59607;SDS011;45426;44.726;10.390;2023-02-01T04:35:47;12.02;;;5.00;;
59607;SDS011;45426;44.726;10.390;2023-02-01T04:38:12;15.13;;;5.65;;
59607;SDS011;45426;44.726;10.390;2023-02-01T04:40:38;18.98;;;6.13;;
59607;SDS011;45426;44.726;10.390;2023-02-01T04:43:03;17.77;;;5.85;;
59607;SDS011;45426;44.726;10.390;2023-02-01T04:45:29;15.32;;;5.88;;
59607;SDS011;45426;44.726;10.390;2023-02-01T04:47:55;15.60;;;5.38;;
59607;SDS011;45426;44.726;10.390;2023-02-01T04:50:20;16.67;;;6.10;;
59607;SDS011;45426;44.726;10.390;2023-02-01T04:52:46;17.13;;;6.53;;
59607;SDS011;45426;44.726;10.390;2023-02-01T04:55:11;18.75;;;7.03;;
59607;SDS011;45426;44.726;10.390;2023-02-01T04:57:38;16.20;;;5.82;;
59607;SDS011;45426;44.726;10.390;2023-02-01T05:00:05;22.17;;;6.47;;
59607;SDS011;45426;44.726;10.390;2023-02-01T05:02:31;18.02;;;6.53;;
59607;SDS011;45426;44.726;10.390;2023-02-01T05:04:57;17.60;;;6.03;;
59607;SDS011;45426;44.726;10.390;2023-02-01T05:07:22;21.95;;;7.28;;
59607;SDS011;45426;44.726;10.390;2023-02-01T05:09:48;21.25;;;7.57;;
59607;SDS011;45426;44.726;10.390;2023-02-01T05:12:13;20.95;;;7.22;;
59607;SDS011;45426;44.726;10.390;2023-02-01T05:14:57;20.63;;;7.70;;
59607;SDS011;45426;44.726;10.390;2023-02-01T05:17:22;16.55;;;7.00;;
59607;SDS011;45426;44.726;10.390;2023-02-01T05:19:48;22.63;;;7.63;;
59607;SDS011;45426;44.726;10.390;2023-02-01T05:22:13;20.00;;;7.10;;
59607;SDS011;45426;44.726;10.390;2023-02-01T05:24:39;23.88;;;7.38;;
59607;SDS011;45426;44.726;10.390;2023-02-01T05:27:04;22.17;;;7.50;;
59607;SDS011;45426;44.726;10.390;2023-02-01T05:29:29;16.52;;;7.03;;
59607;SDS011;45426;44.726;10.390;2023-02-01T05:31:55;18.08;;;7.05;;
59607;SDS011;45426;44.726;10.390;2023-02-01T05:34:20;19.05;;;6.35;;
59607;SDS011;45426;44.726;10.390;2023-02-01T05:36:46;20.02;;;6.90;;
59607;SDS011;45426;44.726;10.390;2023-02-01T05:39:11;17.35;;;6.40;;
59607;SDS011;45426;44.726;10.390;2023-02-01T05:41:37;19.27;;;6.65;;
59607;SDS011;45426;44.726;10.390;2023-02-01T05:44:02;17.48;;;6.28;;
59607;SDS011;45426;44.726;10.390;2023-02-01T05:46:28;18.02;;;6.10;;
59607;SDS011;45426;44.726;10.390;2023-02-01T05:48:53;22.73;;;7.03;;
59607;SDS011;45426;44.726;10.390;2023-02-01T05:51:19;18.35;;;6.63;;
59607;SDS011;45426;44.726;10.390;2023-02-01T05:53:44;15.45;;;6.07;;
59607;SDS011;45426;44.726;10.390;2023-02-01T05:56:10;19.65;;;7.03;;
59607;SDS011;45426;44.726;10.390;2023-02-01T05:58:35;18.05;;;6.30;;
59607;SDS011;45426;44.726;10.390;2023-02-01T06:01:02;20.58;;;6.78;;
59607;SDS011;45426;44.726;10.390;2023-02-01T06:03:28;15.88;;;5.63;;
59607;SDS011;45426;44.726;10.390;2023-02-01T06:05:54;17.58;;;6.43;;
59607;SDS011;45426;44.726;10.390;2023-02-01T06:08:19;20.45;;;6.90;;
59607;SDS011;45426;44.726;10.390;2023-02-01T06:10:45;20.25;;;7.22;;
59607;SDS011;45426;44.726;10.390;2023-02-01T06:13:11;19.75;;;6.95;;
59607;SDS011;45426;44.726;10.390;2023-02-01T06:15:36;17.35;;;6.45;;
59607;SDS011;45426;44.726;10.390;2023-02-01T06:18:07;15.40;;;6.07;;
59607;SDS011;45426;44.726;10.390;2023-02-01T06:20:32;16.83;;;6.10;;
59607;SDS011;45426;44.726;10.390;2023-02-01T06:22:58;20.52;;;6.97;;
59607;SDS011;45426;44.726;10.390;2023-02-01T06:25:23;19.00;;;5.72;;
59607;SDS011;45426;44.726;10.390;2023-02-01T06:27:49;18.83;;;6.25;;
59607;SDS011;45426;44.726;10.390;2023-02-01T06:30:14;17.83;;;6.53;;
59607;SDS011;45426;44.726;10.390;2023-02-01T06:32:40;16.73;;;6.53;;
59607;SDS011;45426;44.726;10.390;2023-02-01T06:35:08;18.10;;;7.03;;
59607;SDS011;45426;44.726;10.390;2023-02-01T06:37:41;23.58;;;7.18;;
59607;SDS011;45426;44.726;10.390;2023-02-01T06:40:06;19.98;;;6.82;;
59607;SDS011;45426;44.726;10.390;2023-02-01T06:42:33;17.83;;;6.38;;
59607;SDS011;45426;44.726;10.390;2023-02-01T06:44:59;24.38;;;7.30;;
59607;SDS011;45426;44.726;10.390;2023-02-01T06:47:24;19.35;;;6.32;;
59607;SDS011;45426;44.726;10.390;2023-02-01T06:49:49;19.58;;;6.75;;
59607;SDS011;45426;44.726;10.390;2023-02-01T06:52:15;19.27;;;6.10;;
59607;SDS011;45426;44.726;10.390;2023-02-01T06:54:40;14.70;;;5.65;;
59607;SDS011;45426;44.726;10.390;2023-02-01T06:57:06;17.83;;;5.93;;
59607;SDS011;45426;44.726;10.390;2023-02-01T06:59:31;17.98;;;5.57;;
59607;SDS011;45426;44.726;10.390;2023-02-01T07:01:56;14.10;;;5.35;;
59607;SDS011;45426;44.726;10.390;2023-02-01T07:04:22;15.55;;;5.60;;
59607;SDS011;45426;44.726;10.390;2023-02-01T07:06:47;15.13;;;5.13;;
59607;SDS011;45426;44.726;10.390;2023-02-01T07:09:13;14.85;;;5.57;;
59607;SDS011;45426;44.726;10.390;2023-02-01T07:11:38;13.98;;;5.15;;
59607;SDS011;45426;44.726;10.390;2023-02-01T07:14:08;16.23;;;5.55;;
59607;SDS011;45426;44.726;10.390;2023-02-01T07:16:34;17.10;;;5.53;;
59607;SDS011;45426;44.726;10.390;2023-02-01T07:19:00;21.38;;;6.95;;
59607;SDS011;45426;44.726;10.390;2023-02-01T07:21:26;18.63;;;6.07;;
59607;SDS011;45426;44.726;10.390;2023-02-01T07:23:53;20.65;;;6.90;;
59607;SDS011;45426;44.726;10.390;2023-02-01T07:26:19;21.38;;;7.80;;
59607;SDS011;45426;44.726;10.390;2023-02-01T07:28:44;19.77;;;6.72;;
59607;SDS011;45426;44.726;10.390;2023-02-01T07:31:12;19.85;;;6.47;;
59607;SDS011;45426;44.726;10.390;2023-02-01T07:33:40;17.67;;;5.80;;
59607;SDS011;45426;44.726;10.390;2023-02-01T07:36:07;18.58;;;7.18;;
59607;SDS011;45426;44.726;10.390;2023-02-01T07:38:36;18.35;;;7.10;;
59607;SDS011;45426;44.726;10.390;2023-02-01T07:41:03;23.55;;;8.07;;
59607;SDS011;45426;44.726;10.390;2023-02-01T07:43:29;21.13;;;8.15;;
59607;SDS011;45426;44.726;10.390;2023-02-01T07:45:55;20.63;;;7.22;;
59607;SDS011;45426;44.726;10.390;2023-02-01T07:48:22;19.13;;;7.07;;
59607;SDS011;45426;44.726;10.390;2023-02-01T07:50:56;21.95;;;7.47;;
59607;SDS011;45426;44.726;10.390;2023-02-01T07:53:22;20.48;;;7.47;;
59607;SDS011;45426;44.726;10.390;2023-02-01T07:55:47;22.60;;;8.18;;
59607;SDS011;45426;44.726;10.390;2023-02-01T07:58:13;20.90;;;7.80;;
59607;SDS011;45426;44.726;10.390;2023-02-01T08:00:38;22.10;;;8.50;;
59607;SDS011;45426;44.726;10.390;2023-02-01T08:03:22;20.15;;;8.00;;
59607;SDS011;45426;44.726;10.390;2023-02-01T08:05:48;20.55;;;8.50;;
59607;SDS011;45426;44.726;10.390;2023-02-01T08:08:13;20.58;;;8.98;;
59607;SDS011;45426;44.726;10.390;2023-02-01T08:10:39;23.10;;;8.32;;
59607;SDS011;45426;44.726;10.390;2023-02-01T08:13:04;25.60;;;9.55;;
59607;SDS011;45426;44.726;10.390;2023-02-01T08:15:29;23.25;;;8.73;;
59607;SDS011;45426;44.726;10.390;2023-02-01T08:17:55;24.25;;;9.13;;
59607;SDS011;45426;44.726;10.390;2023-02-01T08:20:21;25.95;;;9.77;;
59607;SDS011;45426;44.726;10.390;2023-02-01T08:22:56;25.25;;;9.60;;
59607;SDS011;45426;44.726;10.390;2023-02-01T08:25:22;22.33;;;9.30;;
59607;SDS011;45426;44.726;10.390;2023-02-01T08:27:48;23.40;;;8.73;;
59607;SDS011;45426;44.726;10.390;2023-02-01T08:30:13;24.88;;;8.20;;
59607;SDS011;45426;44.726;10.390;2023-02-01T08:32:39;19.65;;;8.32;;
59607;SDS011;45426;44.726;10.390;2023-02-01T08:35:05;20.13;;;7.63;;
59607;SDS011;45426;44.726;10.390;2023-02-01T08:37:31;17.95;;;8.23;;
59607;SDS011;45426;44.726;10.390;2023-02-01T08:39:56;19.95;;;8.48;;
59607;SDS011;45426;44.726;10.390;2023-02-01T08:42:21;22.48;;;8.30;;
59607;SDS011;45426;44.726;10.390;2023-02-01T08:45:06;18.85;;;7.90;;
59607;SDS011;45426;44.726;10.390;2023-02-01T08:47:33;22.20;;;8.07;;
59607;SDS011;45426;44.726;10.390;2023-02-01T08:49:59;21.42;;;7.88;;
59607;SDS011;45426;44.726;10.390;2023-02-01T08:52:24;17.75;;;8.40;;
59607;SDS011;45426;44.726;10.390;2023-02-01T08:54:50;17.85;;;8.43;;
59607;SDS011;45426;44.726;10.390;2023-02-01T08:57:15;20.25;;;8.07;;
59607;SDS011;45426;44.726;10.390;2023-02-01T08:59:41;20.75;;;8.13;;
59607;SDS011;45426;44.726;10.390;2023-02-01T09:02:08;19.63;;;8.32;;
59607;SDS011;45426;44.726;10.390;2023-02-01T09:04:37;18.13;;;7.50;;
59607;SDS011;45426;44.726;10.390;2023-02-01T09:07:02;15.63;;;7.45;;
59607;SDS011;45426;44.726;10.390;2023-02-01T09:09:27;18.92;;;7.50;;
59607;SDS011;45426;44.726;10.390;2023-02-01T09:11:53;17.00;;;7.32;;
59607;SDS011;45426;44.726;10.390;2023-02-01T09:14:18;20.75;;;7.93;;
59607;SDS011;45426;44.726;10.390;2023-02-01T09:16:44;17.27;;;6.95;;
59607;SDS011;45426;44.726;10.390;2023-02-01T09:19:09;17.52;;;7.80;;
59607;SDS011;45426;44.726;10.390;2023-02-01T09:21:34;17.15;;;7.53;;
59607;SDS011;45426;44.726;10.390;2023-02-01T09:24:01;19.38;;;8.48;;
59607;SDS011;45426;44.726;10.390;2023-02-01T09:26:26;22.30;;;9.23;;
59607;SDS011;45426;44.726;10.390;2023-02-01T09:28:52;20.92;;;9.82;;
59607;SDS011;45426;44.726;10.390;2023-02-01T09:31:18;19.92;;;10.50;;
59607;SDS011;45426;44.726;10.390;2023-02-01T09:33:43;25.23;;;11.63;;
59607;SDS011;45426;44.726;10.390;2023-02-01T09:36:09;22.85;;;11.45;;
59607;SDS011;45426;44.726;10.390;2023-02-01T09:38:34;24.65;;;13.45;;
59607;SDS011;45426;44.726;10.390;2023-02-01T09:41:00;25.80;;;13.13;;
59607;SDS011;45426;44.726;10.390;2023-02-01T09:46:14;29.73;;;14.52;;
59607;SDS011;45426;44.726;10.390;2023-02-01T09:48:56;28.50;;;15.10;;
59607;SDS011;45426;44.726;10.390;2023-02-01T09:51:30;28.05;;;15.80;;
59607;SDS011;45426;44.726;10.390;2023-02-01T09:54:03;29.30;;;15.93;;
59607;SDS011;45426;44.726;10.390;2023-02-01T09:56:35;30.17;;;16.52;;
59607;SDS011;45426;44.726;10.390;2023-02-01T10:01:41;30.50;;;18.45;;
59607;SDS011;45426;44.726;10.390;2023-02-01T10:04:09;28.65;;;17.40;;
59607;SDS011;45426;44.726;10.390;2023-02-01T10:06:59;28.45;;;16.88;;
59607;SDS011;45426;44.726;10.390;2023-02-01T10:09:50;28.95;;;17.77;;
59607;SDS011;45426;44.726;10.390;2023-02-01T10:15:24;30.25;;;17.73;;
59607;SDS011;45426;44.726;10.390;2023-02-01T10:28:40;29.02;;;17.27;;
59607;SDS011;45426;44.726;10.390;2023-02-01T10:31:09;29.75;;;17.33;;
59607;SDS011;45426;44.726;10.390;2023-02-01T10:33:42;28.58;;;17.65;;
59607;SDS011;45426;44.726;10.390;2023-02-01T10:39:05;30.35;;;18.05;;
59607;SDS011;45426;44.726;10.390;2023-02-01T10:41:33;30.30;;;17.73;;
59607;SDS011;45426;44.726;10.390;2023-02-01T10:44:03;31.63;;;19.13;;
59607;SDS011;45426;44.726;10.390;2023-02-01T10:46:33;31.88;;;18.63;;
59607;SDS011;45426;44.726;10.390;2023-02-01T10:49:00;33.08;;;19.27;;
59607;SDS011;45426;44.726;10.390;2023-02-01T10:51:28;34.20;;;17.98;;
59607;SDS011;45426;44.726;10.390;2023-02-01T10:54:08;30.13;;;17.00;;
59607;SDS011;45426;44.726;10.390;2023-02-01T10:56:40;31.73;;;16.42;;
59607;SDS011;45426;44.726;10.390;2023-02-01T10:59:14;30.02;;;17.73;;
59607;SDS011;45426;44.726;10.390;2023-02-01T11:01:50;30.33;;;16.48;;
59607;SDS011;45426;44.726;10.390;2023-02-01T11:04:24;30.65;;;17.02;;
59607;SDS011;45426;44.726;10.390;2023-02-01T11:07:36;30.73;;;16.40;;
59607;SDS011;45426;44.726;10.390;2023-02-01T11:09:39;32.15;;;17.02;;
59607;SDS011;45426;44.726;10.390;2023-02-01T11:12:10;28.00;;;15.23;;
59607;SDS011;45426;44.726;10.390;2023-02-01T11:17:45;27.05;;;15.05;;
59607;SDS011;45426;44.726;10.390;2023-02-01T11:20:14;31.95;;;14.18;;
59607;SDS011;45426;44.726;10.390;2023-02-01T11:22:48;27.23;;;13.88;;
59607;SDS011;45426;44.726;10.390;2023-02-01T11:25:19;26.73;;;13.77;;
59607;SDS011;45426;44.726;10.390;2023-02-01T11:27:46;24.80;;;13.70;;
59607;SDS011;45426;44.726;10.390;2023-02-01T11:30:16;25.85;;;12.80;;
59607;SDS011;45426;44.726;10.390;2023-02-01T11:32:46;24.90;;;12.80;;
59607;SDS011;45426;44.726;10.390;2023-02-01T11:35:15;28.13;;;13.32;;
59607;SDS011;45426;44.726;10.390;2023-02-01T11:42:58;26.13;;;12.80;;
59607;SDS011;45426;44.726;10.390;2023-02-01T11:47:56;23.15;;;12.82;;
59607;SDS011;45426;44.726;10.390;2023-02-01T12:01:56;29.65;;;14.85;;
59607;SDS011;45426;44.726;10.390;2023-02-01T12:06:56;31.33;;;14.20;;
59607;SDS011;45426;44.726;10.390;2023-02-01T12:12:25;28.40;;;12.70;;
59607;SDS011;45426;44.726;10.390;2023-02-01T12:23:13;27.83;;;12.43;;
59607;SDS011;45426;44.726;10.390;2023-02-01T12:26:00;26.23;;;12.48;;
59607;SDS011;45426;44.726;10.390;2023-02-01T12:28:39;28.60;;;13.07;;
59607;SDS011;45426;44.726;10.390;2023-02-01T12:34:12;28.52;;;13.13;;
59607;SDS011;45426;44.726;10.390;2023-02-01T12:39:39;28.92;;;14.55;;
59607;SDS011;45426;44.726;10.390;2023-02-01T12:45:00;24.38;;;12.82;;
59607;SDS011;45426;44.726;10.390;2023-02-01T12:47:47;28.70;;;13.13;;
59607;SDS011;45426;44.726;10.390;2023-02-01T12:50:18;31.75;;;12.85;;
59607;SDS011;45426;44.726;10.390;2023-02-01T12:52:53;28.17;;;12.95;;
59607;SDS011;45426;44.726;10.390;2023-02-01T12:58:11;29.45;;;13.52;;
59607;SDS011;45426;44.726;10.390;2023-02-01T13:00:45;28.08;;;12.95;;
59607;SDS011;45426;44.726;10.390;2023-02-01T13:11:28;29.95;;;13.30;;
59607;SDS011;45426;44.726;10.390;2023-02-01T13:16:37;30.05;;;13.63;;
59607;SDS011;45426;44.726;10.390;2023-02-01T13:19:16;27.77;;;13.68;;
59607;SDS011;45426;44.726;10.390;2023-02-01T13:21:46;26.15;;;13.38;;
59607;SDS011;45426;44.726;10.390;2023-02-01T13:27:16;25.48;;;13.30;;
59607;SDS011;45426;44.726;10.390;2023-02-01T13:30:02;25.52;;;13.23;;
59607;SDS011;45426;44.726;10.390;2023-02-01T13:38:28;29.55;;;13.55;;
59607;SDS011;45426;44.726;10.390;2023-02-01T13:41:23;28.15;;;13.63;;
59607;SDS011;45426;44.726;10.390;2023-02-01T13:44:11;25.52;;;13.48;;
59607;SDS011;45426;44.726;10.390;2023-02-01T13:46:43;25.70;;;13.50;;
59607;SDS011;45426;44.726;10.390;2023-02-01T13:49:20;30.20;;;14.52;;
59607;SDS011;45426;44.726;10.390;2023-02-01T13:51:49;30.25;;;14.40;;
59607;SDS011;45426;44.726;10.390;2023-02-01T13:54:37;31.00;;;15.07;;
59607;SDS011;45426;44.726;10.390;2023-02-01T13:57:05;32.40;;;15.18;;
59607;SDS011;45426;44.726;10.390;2023-02-01T13:59:51;29.92;;;14.50;;
59607;SDS011;45426;44.726;10.390;2023-02-01T14:05:54;31.23;;;15.15;;
59607;SDS011;45426;44.726;10.390;2023-02-01T14:23:58;33.53;;;14.15;;
59607;SDS011;45426;44.726;10.390;2023-02-01T14:26:45;32.53;;;14.25;;
59607;SDS011;45426;44.726;10.390;2023-02-01T14:29:34;35.17;;;14.63;;
59607;SDS011;45426;44.726;10.390;2023-02-01T14:32:18;25.85;;;14.60;;
59607;SDS011;45426;44.726;10.390;2023-02-01T14:37:33;31.17;;;15.77;;
59607;SDS011;45426;44.726;10.390;2023-02-01T14:50:17;29.00;;;14.07;;
59607;SDS011;45426;44.726;10.390;2023-02-01T14:52:51;29.90;;;14.90;;
59607;SDS011;45426;44.726;10.390;2023-02-01T14:55:37;29.77;;;14.88;;
59607;SDS011;45426;44.726;10.390;2023-02-01T15:00:58;31.83;;;15.88;;
59607;SDS011;45426;44.726;10.390;2023-02-01T15:03:36;29.52;;;14.45;;
59607;SDS011;45426;44.726;10.390;2023-02-01T15:12:03;30.02;;;14.35;;
59607;SDS011;45426;44.726;10.390;2023-02-01T15:14:32;38.22;;;15.73;;
59607;SDS011;45426;44.726;10.390;2023-02-01T15:16:59;33.67;;;14.77;;
59607;SDS011;45426;44.726;10.390;2023-02-01T15:19:25;31.45;;;15.32;;
59607;SDS011;45426;44.726;10.390;2023-02-01T15:21:54;28.98;;;15.07;;
59607;SDS011;45426;44.726;10.390;2023-02-01T15:26:46;33.20;;;15.68;;
59607;SDS011;45426;44.726;10.390;2023-02-01T15:29:13;31.00;;;14.60;;
59607;SDS011;45426;44.726;10.390;2023-02-01T15:31:43;33.92;;;15.40;;
59607;SDS011;45426;44.726;10.390;2023-02-01T15:34:11;33.90;;;15.55;;
59607;SDS011;45426;44.726;10.390;2023-02-01T15:36:37;32.97;;;15.45;;
59607;SDS011;45426;44.726;10.390;2023-02-01T15:39:22;31.85;;;15.05;;
59607;SDS011;45426;44.726;10.390;2023-02-01T15:44:45;36.15;;;16.20;;
59607;SDS011;45426;44.726;10.390;2023-02-01T15:47:32;30.08;;;15.07;;
59607;SDS011;45426;44.726;10.390;2023-02-01T15:49:58;32.50;;;15.52;;
59607;SDS011;45426;44.726;10.390;2023-02-01T15:52:30;34.88;;;16.15;;
59607;SDS011;45426;44.726;10.390;2023-02-01T15:55:00;33.83;;;15.48;;
59607;SDS011;45426;44.726;10.390;2023-02-01T15:57:31;30.58;;;16.17;;
59607;SDS011;45426;44.726;10.390;2023-02-01T16:00:00;32.65;;;15.27;;
59607;SDS011;45426;44.726;10.390;2023-02-01T16:08:25;31.15;;;15.48;;
59607;SDS011;45426;44.726;10.390;2023-02-01T16:10:53;33.20;;;15.23;;
59607;SDS011;45426;44.726;10.390;2023-02-01T16:13:24;33.75;;;15.90;;
59607;SDS011;45426;44.726;10.390;2023-02-01T16:15:49;38.72;;;16.08;;
59607;SDS011;45426;44.726;10.390;2023-02-01T16:18:15;35.33;;;16.48;;
59607;SDS011;45426;44.726;10.390;2023-02-01T16:20:41;34.55;;;16.52;;
59607;SDS011;45426;44.726;10.390;2023-02-01T16:23:07;31.35;;;17.20;;
59607;SDS011;45426;44.726;10.390;2023-02-01T16:25:34;35.15;;;18.30;;
59607;SDS011;45426;44.726;10.390;2023-02-01T16:28:00;33.08;;;16.95;;
59607;SDS011;45426;44.726;10.390;2023-02-01T16:30:26;36.67;;;17.13;;
59607;SDS011;45426;44.726;10.390;2023-02-01T16:32:52;36.85;;;17.02;;
59607;SDS011;45426;44.726;10.390;2023-02-01T16:35:36;36.47;;;16.48;;
59607;SDS011;45426;44.726;10.390;2023-02-01T16:38:03;37.15;;;16.55;;
59607;SDS011;45426;44.726;10.390;2023-02-01T16:40:40;42.85;;;17.30;;
59607;SDS011;45426;44.726;10.390;2023-02-01T16:43:17;34.58;;;16.35;;
59607;SDS011;45426;44.726;10.390;2023-02-01T16:45:47;35.80;;;15.85;;
59607;SDS011;45426;44.726;10.390;2023-02-01T16:50:53;38.15;;;16.40;;
59607;SDS011;45426;44.726;10.390;2023-02-01T16:53:20;35.35;;;16.25;;
59607;SDS011;45426;44.726;10.390;2023-02-01T16:55:47;33.60;;;15.05;;
59607;SDS011;45426;44.726;10.390;2023-02-01T16:58:13;32.67;;;15.27;;
59607;SDS011;45426;44.726;10.390;2023-02-01T17:00:38;34.30;;;16.83;;
59607;SDS011;45426;44.726;10.390;2023-02-01T17:03:04;34.78;;;15.40;;
59607;SDS011;45426;44.726;10.390;2023-02-01T17:05:31;38.33;;;17.35;;
59607;SDS011;45426;44.726;10.390;2023-02-01T17:07:58;34.97;;;14.95;;
59607;SDS011;45426;44.726;10.390;2023-02-01T17:10:28;37.15;;;16.08;;
59607;SDS011;45426;44.726;10.390;2023-02-01T17:12:55;32.92;;;17.02;;
59607;SDS011;45426;44.726;10.390;2023-02-01T17:15:21;38.15;;;18.70;;
59607;SDS011;45426;44.726;10.390;2023-02-01T17:17:47;35.85;;;16.58;;
59607;SDS011;45426;44.726;10.390;2023-02-01T17:20:19;36.30;;;16.73;;
59607;SDS011;45426;44.726;10.390;2023-02-01T17:22:47;32.55;;;16.40;;
59607;SDS011;45426;44.726;10.390;2023-02-01T17:25:14;42.47;;;19.27;;
59607;SDS011;45426;44.726;10.390;2023-02-01T17:27:46;40.90;;;17.30;;
59607;SDS011;45426;44.726;10.390;2023-02-01T17:30:12;36.72;;;17.60;;
59607;SDS011;45426;44.726;10.390;2023-02-01T17:32:39;34.90;;;16.85;;
59607;SDS011;45426;44.726;10.390;2023-02-01T17:35:05;37.72;;;18.88;;